sensor_id;sensor_type;location;lat;lon;timestamp;temperature;humidity
26304;DHT22;57113;48.680;8.890;2023-03-01T20:42:15;3.50;99.90
26304;DHT22;57113;48.680;8.890;2023-03-01T20:44:41;3.70;99.90
26304;DHT22;57113;48.680;8.890;2023-03-01T20:47:09;3.60;99.90
26304;DHT22;57113;48.680;8.890;2023-03-01T20:49:34;3.50;99.90
26304;DHT22;57113;48.680;8.890;2023-03-01T20:52:00;3.40;99.90
26304;DHT22;57113;48.680;8.890;2023-03-01T20:54:26;3.30;99.90
26304;DHT22;57113;48.680;8.890;2023-03-01T20:56:52;3.30;99.90
26304;DHT22;57113;48.680;8.890;2023-03-01T20:59:18;3.20;99.90
26304;DHT22;57113;48.680;8.890;2023-03-01T21:01:43;3.20;99.90
26304;DHT22;57113;48.680;8.890;2023-03-01T21:04:09;3.20;99.90
26304;DHT22;57113;48.680;8.890;2023-03-01T21:06:35;3.30;99.90
26304;DHT22;57113;48.680;8.890;2023-03-01T21:09:00;3.50;99.90
26304;DHT22;57113;48.680;8.890;2023-03-01T21:11:26;3.70;99.90
26304;DHT22;57113;48.680;8.890;2023-03-01T21:13:52;3.70;99.90
26304;DHT22;57113;48.680;8.890;2023-03-01T21:16:18;3.80;99.90
26304;DHT22;57113;48.680;8.890;2023-03-01T21:18:44;3.70;99.90
26304;DHT22;57113;48.680;8.890;2023-03-01T21:21:12;3.70;99.90
26304;DHT22;57113;48.680;8.890;2023-03-01T21:23:39;3.60;99.90
26304;DHT22;57113;48.680;8.890;2023-03-01T21:26:10;3.50;99.90
26304;DHT22;57113;48.680;8.890;2023-03-01T21:28:37;3.40;99.90
26304;DHT22;57113;48.680;8.890;2023-03-01T21:31:17;3.30;99.90
26304;DHT22;57113;48.680;8.890;2023-03-01T21:33:57;3.30;99.90
26304;DHT22;57113;48.680;8.890;2023-03-01T21:36:25;3.20;99.90
26304;DHT22;57113;48.680;8.890;2023-03-01T21:38:51;3.20;99.90
26304;DHT22;57113;48.680;8.890;2023-03-01T21:41:22;3.20;99.90
26304;DHT22;57113;48.680;8.890;2023-03-01T21:43:51;3.20;99.90
26304;DHT22;57113;48.680;8.890;2023-03-01T21:46:19;3.10;99.90
26304;DHT22;57113;48.680;8.890;2023-03-01T21:48:46;3.10;99.90
26304;DHT22;57113;48.680;8.890;2023-03-01T21:51:13;3.10;99.90
26304;DHT22;57113;48.680;8.890;2023-03-01T21:53:39;3.10;99.90
26304;DHT22;57113;48.680;8.890;2023-03-01T21:56:05;3.10;99.90
26304;DHT22;57113;48.680;8.890;2023-03-01T21:58:31;3.00;99.90
26304;DHT22;57113;48.680;8.890;2023-03-01T22:01:06;3.00;99.90
26304;DHT22;57113;48.680;8.890;2023-03-01T22:03:31;3.00;99.90
26304;DHT22;57113;48.680;8.890;2023-03-01T22:06:00;3.10;99.90
26304;DHT22;57113;48.680;8.890;2023-03-01T22:08:27;3.20;99.90
26304;DHT22;57113;48.680;8.890;2023-03-01T22:10:53;3.50;99.90
26304;DHT22;57113;48.680;8.890;2023-03-01T22:13:18;3.60;99.90
26304;DHT22;57113;48.680;8.890;2023-03-01T22:15:44;3.50;99.90
26304;DHT22;57113;48.680;8.890;2023-03-01T22:18:11;3.50;99.90
26304;DHT22;57113;48.680;8.890;2023-03-01T22:20:38;3.40;99.90
26304;DHT22;57113;48.680;8.890;2023-03-01T22:23:04;3.20;99.90
26304;DHT22;57113;48.680;8.890;2023-03-01T22:25:30;3.10;99.90
26304;DHT22;57113;48.680;8.890;2023-03-01T22:27:56;3.00;99.90
26304;DHT22;57113;48.680;8.890;2023-03-01T22:30:21;2.90;99.90
26304;DHT22;57113;48.680;8.890;2023-03-01T22:32:47;2.80;99.90
26304;DHT22;57113;48.680;8.890;2023-03-01T22:35:13;2.70;99.90
26304;DHT22;57113;48.680;8.890;2023-03-01T22:37:39;2.60;99.90
26304;DHT22;57113;48.680;8.890;2023-03-01T22:40:06;2.60;99.90
26304;DHT22;57113;48.680;8.890;2023-03-01T22:42:32;2.50;99.90
26304;DHT22;57113;48.680;8.890;2023-03-01T22:44:58;2.40;99.90
26304;DHT22;57113;48.680;8.890;2023-03-01T22:47:24;2.40;99.90
26304;DHT22;57113;48.680;8.890;2023-03-01T22:49:53;2.40;99.90
26304;DHT22;57113;48.680;8.890;2023-03-01T22:52:18;2.40;99.90
26304;DHT22;57113;48.680;8.890;2023-03-01T22:54:44;2.30;99.90
26304;DHT22;57113;48.680;8.890;2023-03-01T22:57:10;2.30;99.90
26304;DHT22;57113;48.680;8.890;2023-03-01T22:59:35;2.30;99.90
26304;DHT22;57113;48.680;8.890;2023-03-01T23:02:01;2.30;99.90
26304;DHT22;57113;48.680;8.890;2023-03-01T23:04:27;2.30;99.90
26304;DHT22;57113;48.680;8.890;2023-03-01T23:06:53;2.50;99.90
26304;DHT22;57113;48.680;8.890;2023-03-01T23:09:21;2.70;99.90
26304;DHT22;57113;48.680;8.890;2023-03-01T23:11:48;2.90;99.90
26304;DHT22;57113;48.680;8.890;2023-03-01T23:14:15;3.00;99.90
26304;DHT22;57113;48.680;8.890;2023-03-01T23:16:40;3.00;99.90
26304;DHT22;57113;48.680;8.890;2023-03-01T23:19:06;2.90;99.90
26304;DHT22;57113;48.680;8.890;2023-03-01T23:21:32;2.80;99.90
26304;DHT22;57113;48.680;8.890;2023-03-01T23:23:58;2.80;99.90
26304;DHT22;57113;48.680;8.890;2023-03-01T23:26:27;2.70;99.90
26304;DHT22;57113;48.680;8.890;2023-03-01T23:28:54;2.60;99.90
26304;DHT22;57113;48.680;8.890;2023-03-01T23:31:21;2.50;99.90
26304;DHT22;57113;48.680;8.890;2023-03-01T23:33:47;2.40;99.90
26304;DHT22;57113;48.680;8.890;2023-03-01T23:38:39;2.30;99.90
26304;DHT22;57113;48.680;8.890;2023-03-01T23:41:11;2.20;99.90
26304;DHT22;57113;48.680;8.890;2023-03-01T23:43:37;2.10;99.90
26304;DHT22;57113;48.680;8.890;2023-03-01T23:46:03;2.10;99.90
26304;DHT22;57113;48.680;8.890;2023-03-01T23:48:29;2.00;99.90
26304;DHT22;57113;48.680;8.890;2023-03-01T23:50:54;2.00;99.90
26304;DHT22;57113;48.680;8.890;2023-03-01T23:53:20;1.90;99.90
26304;DHT22;57113;48.680;8.890;2023-03-01T23:55:52;1.90;99.90
26304;DHT22;57113;48.680;8.890;2023-03-01T23:58:19;1.80;99.90
